Time;durP1;ratioP1;P1;durP2;ratioP2;P2;SDS_P1;SDS_P2;PMS_P1;PMS_P2;Temp;Humidity;BMP_temperature;BMP_pressure;BME280_temperature;BME280_humidity;BME280_pressure;Samples;Min_cycle;Max_cycle;Signal;HPM_P1;HPM_P2
2024/02/10 00:00:58;;;;;;;;;4.00;4.00;;;;;11.85;72.70;98382.06;1995921;28;2754443;-80
2024/02/10 00:02:10;;;;;;;;;5.00;4.00;;;;;11.82;72.38;98384.91;2043212;28;2734681;-80
2024/02/10 00:03:24;;;;;;;;;4.83;4.83;;;;;11.81;72.68;98377.97;2044664;28;2749200;-80
2024/02/10 00:04:34;;;;;;;;;5.00;5.00;;;;;11.79;72.67;98372.81;2005403;27;3463821;-80
2024/02/10 00:05:45;;;;;;;;;7.67;4.00;;;;;11.77;72.49;98381.78;2049195;28;2742016;-80
2024/02/10 00:06:59;;;;;;;;;5.50;4.00;;;;;11.75;72.59;98373.19;2029323;27;2752376;-80
2024/02/10 00:08:12;;;;;;;;;4.67;4.17;;;;;11.71;72.86;98369.94;2031644;27;2734641;-80
2024/02/10 00:09:22;;;;;;;;;7.67;6.67;;;;;11.69;72.59;98363.94;2001849;27;2758795;-80
2024/02/10 00:10:34;;;;;;;;;4.33;4.00;;;;;11.66;72.92;98362.38;2046568;28;2741959;-80
2024/02/10 00:11:47;;;;;;;;;6.67;5.00;;;;;11.64;72.59;98361.69;2029577;27;2746126;-80
2024/02/10 00:12:58;;;;;;;;;5.00;5.00;;;;;11.63;72.88;98359.97;2010977;27;2754505;-80
2024/02/10 00:14:11;;;;;;;;;4.00;4.00;;;;;11.63;72.96;98359.97;2059820;27;2736743;-80
2024/02/10 00:15:23;;;;;;;;;8.33;4.33;;;;;11.61;73.11;98363.69;2010906;27;2742995;-80
2024/02/10 00:16:36;;;;;;;;;3.83;3.83;;;;;11.58;72.78;98364.78;2060618;27;2735708;-80
2024/02/10 00:17:48;;;;;;;;;8.33;4.00;;;;;11.56;73.09;98356.16;2010601;27;2751782;-80
2024/02/10 00:19:09;;;;;;;;;6.17;6.17;;;;;11.55;73.08;98349.22;2060302;27;2748174;-80
2024/02/10 00:20:20;;;;;;;;;4.00;4.00;;;;;11.52;73.01;98350.28;2008183;27;2752348;-80
2024/02/10 00:21:33;;;;;;;;;8.17;4.67;;;;;11.50;73.21;98352.19;2055959;27;2752702;-80
2024/02/10 00:22:47;;;;;;;;;3.33;3.33;;;;;11.50;73.15;98338.22;2034932;27;2741951;-80
2024/02/10 00:24:02;;;;;;;;;4.83;3.33;;;;;11.47;73.11;98334.84;2027869;28;2737760;-80
2024/02/10 00:25:15;;;;;;;;;4.00;4.00;;;;;11.45;73.42;98334.13;2024331;28;2747160;-80
2024/02/10 00:26:28;;;;;;;;;7.83;6.17;;;;;11.44;73.30;98337.72;2021422;28;2741966;-80
2024/02/10 00:27:46;;;;;;;;;5.17;4.00;;;;;11.40;73.19;98335.44;2029577;27;2739849;-80
2024/02/10 00:28:59;;;;;;;;;8.50;7.17;;;;;11.37;73.05;98331.25;2037573;27;2747530;-80
2024/02/10 00:30:10;;;;;;;;;5.00;5.00;;;;;11.35;73.18;98333.16;2001187;28;2749211;-80
2024/02/10 00:31:23;;;;;;;;;8.60;7.60;;;;;11.32;73.58;98338.63;2037679;28;2737772;-80
2024/02/10 00:32:37;;;;;;;;;5.67;5.67;;;;;11.31;73.34;98336.97;2026091;27;2746112;-80
2024/02/10 00:33:57;;;;;;;;;8.33;6.33;;;;;11.29;73.27;98341.47;2060993;27;2745124;-80
2024/02/10 00:35:10;;;;;;;;;5.50;5.17;;;;;11.27;73.20;98344.25;2028891;28;2742965;-80
2024/02/10 00:36:20;;;;;;;;;6.67;5.00;;;;;11.23;73.59;98338.38;2003190;28;2746113;-80
2024/02/10 00:37:32;;;;;;;;;5.33;5.00;;;;;11.22;73.37;98341.09;2041842;28;2750340;-80
2024/02/10 00:38:45;;;;;;;;;5.50;5.33;;;;;11.20;73.28;98340.38;2028649;27;2740966;-80
2024/02/10 00:40:00;;;;;;;;;8.00;6.83;;;;;11.18;73.45;98339.66;2035513;27;2748294;-80
2024/02/10 00:41:11;;;;;;;;;7.00;5.67;;;;;11.15;73.68;98343.38;2002759;28;2745053;-80
2024/02/10 00:42:27;;;;;;;;;9.33;7.00;;;;;11.14;73.49;98345.16;2019578;28;2745041;-80
2024/02/10 00:43:45;;;;;;;;;5.50;5.50;;;;;11.11;73.73;98332.22;2053474;27;2746128;-80
2024/02/10 00:44:59;;;;;;;;;9.33;8.67;;;;;11.08;73.69;98331.63;2000957;28;2749284;-80
2024/02/10 00:46:15;;;;;;;;;4.17;4.00;;;;;11.07;73.97;98341.28;2052768;27;2741976;-80
2024/02/10 00:47:28;;;;;;;;;7.50;6.50;;;;;11.05;73.96;98330.06;2027860;28;2732557;-80
2024/02/10 00:48:48;;;;;;;;;7.00;7.00;;;;;11.06;73.77;98333.53;2029389;27;2738800;-80
2024/02/10 00:50:02;;;;;;;;;4.83;4.83;;;;;11.03;74.19;98330.19;2036790;27;2748226;-80
2024/02/10 00:51:14;;;;;;;;;8.33;7.00;;;;;11.03;73.94;98342.47;2011580;27;2736736;-80
2024/02/10 00:52:24;;;;;;;;;7.67;7.33;;;;;11.00;73.99;98334.81;2034323;27;2724259;-80
2024/02/10 00:53:44;;;;;;;;;7.00;5.33;;;;;10.99;74.14;98336.59;2058817;27;2739872;-80
2024/02/10 00:54:58;;;;;;;;;7.00;6.67;;;;;11.00;74.22;98333.03;2037599;27;2737790;-81
2024/02/10 00:56:12;;;;;;;;;7.83;7.83;;;;;10.99;74.30;98338.38;2036356;27;2735713;-80
2024/02/10 00:57:28;;;;;;;;;9.00;6.33;;;;;10.96;74.12;98334.22;2060410;27;2740866;-80
2024/02/10 00:58:43;;;;;;;;;7.67;7.67;;;;;10.95;74.15;98332.53;2036875;27;2735694;-80
2024/02/10 00:59:56;;;;;;;;;7.17;7.17;;;;;10.94;74.12;98336.09;2060685;27;2737765;-81
2024/02/10 01:01:14;;;;;;;;;8.33;8.33;;;;;10.92;74.31;98332.75;2037470;27;2734680;-80
2024/02/10 01:02:24;;;;;;;;;11.00;8.67;;;;;10.89;74.55;98333.81;2002028;27;2754801;-80
2024/02/10 01:03:37;;;;;;;;;8.00;8.00;;;;;10.88;74.39;98340.03;2034150;28;3446166;-80
2024/02/10 01:04:53;;;;;;;;;8.33;8.33;;;;;10.86;74.24;98335.84;2045805;28;2748181;-80
2024/02/10 01:06:09;;;;;;;;;9.17;8.67;;;;;10.86;74.19;98351.59;2046291;28;2739838;-81
2024/02/10 01:07:20;;;;;;;;;9.67;9.00;;;;;10.83;74.53;98342.16;2000905;28;3463767;-80
2024/02/10 01:08:30;;;;;;;;;9.67;7.67;;;;;10.83;74.53;98344.78;2026637;27;2751310;-80
2024/02/10 01:09:48;;;;;;;;;9.00;9.00;;;;;10.82;74.44;98337.84;2053075;27;2737777;-80
2024/02/10 01:11:01;;;;;;;;;10.50;10.50;;;;;10.82;74.50;98350.97;2028237;28;2741929;-80
2024/02/10 01:12:16;;;;;;;;;8.33;8.00;;;;;10.83;74.98;98346.56;2029928;28;2739836;-83
2024/02/10 01:13:27;;;;;;;;;9.33;9.33;;;;;10.82;74.67;98347.50;2003885;28;2763182;-82
2024/02/10 01:14:40;;;;;;;;;10.00;9.33;;;;;10.83;74.71;98351.81;2030547;27;2775393;-83
2024/02/10 01:15:54;;;;;;;;;10.83;9.67;;;;;10.83;74.87;98351.81;2053639;27;2741949;-83
2024/02/10 01:17:10;;;;;;;;;11.33;11.00;;;;;10.83;74.76;98355.28;2001840;28;3513792;-83
2024/02/10 01:18:20;;;;;;;;;11.67;8.00;;;;;10.82;74.73;98348.34;2026459;28;2773249;-83
2024/02/10 01:19:32;;;;;;;;;9.00;9.00;;;;;10.82;74.82;98352.75;2041676;27;2754466;-83
2024/02/10 01:20:42;;;;;;;;;12.33;10.00;;;;;10.82;74.81;98353.59;2022434;28;3520391;-83
2024/02/10 01:21:57;;;;;;;;;8.00;7.00;;;;;10.85;75.28;98357.78;2030090;27;2729440;-82
2024/02/10 01:23:11;;;;;;;;;11.50;9.83;;;;;10.84;74.85;98353.50;2039199;27;2760716;-83
2024/02/10 01:24:23;;;;;;;;;9.33;7.67;;;;;10.84;74.99;98358.75;2012689;27;2755470;-83
2024/02/10 01:25:35;;;;;;;;;11.50;8.75;;;;;10.84;75.02;98361.38;2048478;27;1842418;-83
2024/02/10 01:26:45;;;;;;;;;11.00;10.00;;;;;10.84;75.07;98358.75;2032412;27;3496096;-83
2024/02/10 01:27:58;;;;;;;;;15.00;11.67;;;;;10.83;75.08;98352.66;2049551;27;3507031;-83
2024/02/10 01:29:09;;;;;;;;;10.00;10.00;;;;;10.85;75.21;98360.41;2032600;27;3512723;-83
2024/02/10 01:30:20;;;;;;;;;12.33;12.33;;;;;10.85;75.29;98352.53;2027777;28;3512723;-83
2024/02/10 01:31:31;;;;;;;;;13.00;12.33;;;;;10.85;75.21;98361.25;2009091;28;3516952;-83
2024/02/10 01:32:42;;;;;;;;;11.00;9.33;;;;;10.86;75.17;98359.47;2024547;28;1839829;-83
2024/02/10 01:33:53;;;;;;;;;14.50;12.50;;;;;10.87;75.10;98351.47;2006773;27;2794025;-83
2024/02/10 01:35:04;;;;;;;;;11.67;9.00;;;;;10.87;75.39;98356.72;2033499;28;3483552;-83
2024/02/10 01:36:15;;;;;;;;;12.33;10.00;;;;;10.89;75.13;98364.53;2027418;27;3500251;-83
2024/02/10 01:37:26;;;;;;;;;12.33;9.67;;;;;10.88;75.47;98357.59;2031440;28;3498183;-84
2024/02/10 01:38:42;;;;;;;;;7.00;7.00;;;;;10.90;75.20;98366.19;2046336;28;2738278;-83
2024/02/10 01:39:57;;;;;;;;;9.00;9.00;;;;;10.89;75.16;98360.09;2026259;27;3454409;-83
2024/02/10 01:41:09;;;;;;;;;11.33;11.33;;;;;10.90;75.31;98361.78;2024505;28;3513565;-83
2024/02/10 01:42:27;;;;;;;;;8.67;8.67;;;;;10.89;75.18;98354.81;2026122;28;3465884;-81
2024/02/10 01:43:38;;;;;;;;;11.33;9.00;;;;;10.91;75.26;98355.56;2025336;28;3486772;-81
2024/02/10 01:44:51;;;;;;;;;9.33;8.00;;;;;10.88;75.46;98342.66;2052328;28;2741927;-80
2024/02/10 01:46:04;;;;;;;;;11.25;8.00;;;;;10.92;75.23;98345.88;2016501;28;1844125;-80
2024/02/10 01:47:15;;;;;;;;;9.67;9.67;;;;;10.92;75.17;98345.88;2017707;28;2772245;-80
2024/02/10 01:48:27;;;;;;;;;10.25;7.75;;;;;10.91;75.45;98347.66;2043182;28;2755489;-80
2024/02/10 01:49:41;;;;;;;;;9.00;6.33;;;;;10.93;75.09;98354.63;2010275;28;2749381;-80
2024/02/10 01:50:52;;;;;;;;;10.00;10.00;;;;;10.91;75.22;98363.44;2022343;28;2781529;-80
2024/02/10 01:52:04;;;;;;;;;7.50;7.00;;;;;10.92;75.14;98364.28;2033924;27;2736727;-80
2024/02/10 01:53:17;;;;;;;;;9.00;8.83;;;;;10.93;75.29;98352.00;2051703;28;2733606;-80
2024/02/10 01:54:30;;;;;;;;;9.00;9.00;;;;;10.92;75.29;98353.78;2020336;28;2750282;-81
2024/02/10 01:55:42;;;;;;;;;11.33;8.67;;;;;10.96;75.33;98354.41;2016724;28;3475258;-80
2024/02/10 01:56:53;;;;;;;;;11.00;11.00;;;;;10.95;75.34;98352.72;2020366;27;3492951;-81
2024/02/10 01:58:06;;;;;;;;;11.67;9.33;;;;;10.95;75.14;98355.34;2038164;28;1822630;-80
2024/02/10 01:59:16;;;;;;;;;9.33;8.33;;;;;10.95;75.38;98368.47;2002795;28;1835715;-80
2024/02/10 02:00:28;;;;;;;;;8.25;8.25;;;;;10.95;75.08;98358.81;2022255;28;2736761;-80
2024/02/10 02:01:45;;;;;;;;;10.50;9.50;;;;;10.96;75.39;98367.53;2037952;28;1829479;-80
2024/02/10 02:02:59;;;;;;;;;8.00;7.33;;;;;10.95;75.28;98369.31;2018846;28;2736840;-80
2024/02/10 02:04:11;;;;;;;;;9.50;7.50;;;;;10.95;75.27;98373.72;2025689;28;2745056;-80
2024/02/10 02:05:22;;;;;;;;;9.33;7.67;;;;;10.94;75.58;98372.88;2024577;28;3471084;-80
2024/02/10 02:06:33;;;;;;;;;10.67;10.67;;;;;10.94;75.10;98370.25;2028440;28;3501273;-80
2024/02/10 02:07:48;;;;;;;;;13.67;10.00;;;;;10.93;75.08;98371.22;2019592;28;3517973;-80
2024/02/10 02:09:00;;;;;;;;;8.67;8.67;;;;;10.94;75.15;98366.81;2026607;28;2740991;-80
2024/02/10 02:10:11;;;;;;;;;13.00;8.50;;;;;10.94;75.26;98364.19;2039780;27;1837786;-80
2024/02/10 02:11:23;;;;;;;;;10.00;9.00;;;;;10.93;75.33;98363.34;2026247;28;2755504;-80
2024/02/10 02:12:50;;;;;;;;;7.17;7.17;;;;;10.94;75.03;98361.56;2052835;28;2732560;-81
2024/02/10 02:14:01;;;;;;;;;8.00;7.00;;;;;10.94;75.11;98357.13;2026092;27;3453351;-81
2024/02/10 02:15:17;;;;;;;;;10.67;9.00;;;;;10.93;75.44;98355.47;2053195;27;2746126;-80
2024/02/10 02:16:31;;;;;;;;;10.00;8.17;;;;;10.95;75.44;98355.34;2036548;27;2753436;-80
2024/02/10 02:17:45;;;;;;;;;7.33;7.33;;;;;10.95;75.88;98358.81;2023779;28;2741931;-80
2024/02/10 02:18:58;;;;;;;;;8.67;8.67;;;;;10.95;75.43;98353.56;2014379;28;2730506;-81
2024/02/10 02:20:10;;;;;;;;;9.33;8.33;;;;;10.96;75.30;98365.75;2018337;28;2751311;-80
2024/02/10 02:21:22;;;;;;;;;8.67;8.67;;;;;10.95;75.18;98358.81;2032617;27;3459604;-80
2024/02/10 02:22:35;;;;;;;;;8.33;7.83;;;;;10.95;75.61;98355.34;2052479;28;2737784;-80
2024/02/10 02:23:45;;;;;;;;;11.67;8.00;;;;;10.97;75.54;98350.81;2024874;28;2760797;-81
2024/02/10 02:24:56;;;;;;;;;9.67;9.67;;;;;10.97;75.20;98361.31;2034735;28;3481529;-80
2024/02/10 02:26:07;;;;;;;;;7.33;7.33;;;;;10.97;75.29;98362.16;2044037;28;2738315;-80
2024/02/10 02:27:18;;;;;;;;;7.67;6.33;;;;;10.98;75.55;98363.00;1996593;28;2748265;-80
2024/02/10 02:28:29;;;;;;;;;8.33;7.33;;;;;10.98;75.55;98363.00;2051766;27;2740930;-80
2024/02/10 02:29:39;;;;;;;;;8.67;7.00;;;;;11.00;75.52;98358.47;2025658;28;2735867;-80
2024/02/10 02:30:50;;;;;;;;;9.67;8.00;;;;;10.99;75.29;98355.00;2029954;28;3465881;-81
2024/02/10 02:32:03;;;;;;;;;9.25;9.25;;;;;11.01;75.59;98360.16;2042829;28;2741963;-80
2024/02/10 02:33:16;;;;;;;;;8.33;7.67;;;;;11.01;75.54;98354.91;2037579;28;2731520;-80
2024/02/10 02:34:33;;;;;;;;;6.33;6.33;;;;;11.01;75.69;98363.59;2008442;28;1814930;-80
2024/02/10 02:35:44;;;;;;;;;11.67;9.33;;;;;11.02;75.65;98354.78;1995073;28;3487735;-80
2024/02/10 02:36:57;;;;;;;;;8.60;8.60;;;;;11.03;75.59;98355.63;2043713;28;2741933;-80
2024/02/10 02:38:14;;;;;;;;;8.33;8.33;;;;;11.04;75.50;98362.53;2052795;28;2729478;-80
2024/02/10 02:39:24;;;;;;;;;8.67;7.33;;;;;11.05;75.60;98363.38;2015851;28;1808596;-80
2024/02/10 02:40:35;;;;;;;;;9.33;6.00;;;;;11.06;75.73;98359.81;2016149;28;3464823;-80
2024/02/10 02:41:47;;;;;;;;;9.00;8.50;;;;;11.07;75.44;98359.69;2042986;28;2737820;-80
2024/02/10 02:43:02;;;;;;;;;5.83;5.83;;;;;11.07;75.50;98356.22;2045091;28;2740926;-80
2024/02/10 02:44:16;;;;;;;;;9.67;7.67;;;;;11.07;75.48;98356.22;2001973;28;2753885;-80
2024/02/10 02:45:32;;;;;;;;;8.83;8.83;;;;;11.08;75.52;98344.78;2043798;28;2732026;-81
2024/02/10 02:46:44;;;;;;;;;9.00;8.00;;;;;11.07;75.48;98345.72;2017113;28;3452407;-81
2024/02/10 02:48:01;;;;;;;;;7.33;7.17;;;;;11.08;75.32;98347.41;2051855;28;2736724;-80
2024/02/10 02:49:15;;;;;;;;;6.67;6.67;;;;;11.07;75.32;98345.72;1994902;28;2739903;-80
2024/02/10 02:50:25;;;;;;;;;10.33;9.33;;;;;11.08;75.46;98336.88;2020335;28;2761843;-80
2024/02/10 02:51:37;;;;;;;;;8.67;8.67;;;;;11.07;75.28;98329.94;2052142;27;2733611;-80
2024/02/10 02:52:47;;;;;;;;;9.33;9.00;;;;;11.07;75.24;98327.31;2025422;28;3455481;-80
2024/02/10 02:53:59;;;;;;;;;7.33;7.33;;;;;11.08;75.13;98331.63;2045973;27;2744054;-80
2024/02/10 02:55:11;;;;;;;;;8.67;8.67;;;;;11.06;75.15;98325.66;1996463;28;2744087;-80
2024/02/10 02:56:25;;;;;;;;;8.67;7.33;;;;;11.05;75.11;98323.97;2052416;28;2737821;-80
2024/02/10 02:57:36;;;;;;;;;9.00;8.33;;;;;11.04;75.12;98325.75;2016939;28;3465873;-80
2024/02/10 02:58:51;;;;;;;;;8.00;8.00;;;;;11.03;74.99;98324.94;2035740;28;2740957;-80
2024/02/10 03:00:05;;;;;;;;;8.33;8.00;;;;;11.01;75.01;98323.38;2051309;28;2734625;-80
2024/02/10 03:01:15;;;;;;;;;11.00;9.00;;;;;10.99;75.08;98319.97;2018541;28;3474274;-81
2024/02/10 03:02:27;;;;;;;;;9.67;5.00;;;;;10.98;74.88;98321.78;2041105;28;2756888;-80
2024/02/10 03:03:39;;;;;;;;;10.67;8.67;;;;;10.96;74.76;98326.34;2026450;27;2758276;-80
2024/02/10 03:04:49;;;;;;;;;12.00;9.33;;;;;10.94;74.90;98325.56;2030279;27;2754529;-80
2024/02/10 03:06:00;;;;;;;;;9.33;9.33;;;;;10.91;74.80;98321.38;2050072;28;2752355;-80
2024/02/10 03:07:16;;;;;;;;;6.67;6.67;;;;;10.91;74.84;98324.00;1995725;28;2748638;-80
2024/02/10 03:08:29;;;;;;;;;8.00;7.00;;;;;10.88;74.96;98323.41;2052625;28;2741966;-80
2024/02/10 03:09:44;;;;;;;;;10.25;7.75;;;;;10.86;75.13;98325.31;2007977;28;1829453;-80
2024/02/10 03:10:55;;;;;;;;;12.67;9.00;;;;;10.86;74.79;98325.31;2021895;28;3477375;-81
2024/02/10 03:12:05;;;;;;;;;11.67;7.00;;;;;10.83;74.73;98325.53;2030884;28;2753398;-80
2024/02/10 03:13:17;;;;;;;;;7.75;7.75;;;;;10.82;75.04;98324.69;2048104;28;2738823;-80
2024/02/10 03:14:31;;;;;;;;;7.50;6.83;;;;;10.79;75.03;98314.44;2052721;28;2743000;-80
2024/02/10 03:15:42;;;;;;;;;8.67;8.00;;;;;10.79;75.14;98319.69;2002837;27;3460665;-80
2024/02/10 03:16:52;;;;;;;;;11.33;9.67;;;;;10.77;75.18;98313.69;2025624;27;3478356;-81
2024/02/10 03:18:04;;;;;;;;;11.33;7.33;;;;;10.78;75.19;98315.38;2042176;27;3464297;-80
2024/02/10 03:19:18;;;;;;;;;9.00;8.00;;;;;10.76;75.24;98320.75;2051596;28;2751306;-81
2024/02/10 03:20:32;;;;;;;;;6.33;6.33;;;;;10.73;75.03;98318.34;2028110;28;2746172;-82
2024/02/10 03:21:43;;;;;;;;;8.67;8.67;;;;;10.73;75.47;98312.22;2016950;27;1844034;-82
2024/02/10 03:23:01;;;;;;;;;7.67;7.67;;;;;10.71;75.00;98320.25;2018031;28;2742014;-82
2024/02/10 03:24:12;;;;;;;;;9.67;8.33;;;;;10.69;74.80;98311.63;2017656;27;3471088;-82
2024/02/10 03:25:23;;;;;;;;;7.33;6.67;;;;;10.67;75.04;98316.97;2042592;28;2741951;-82
2024/02/10 03:26:37;;;;;;;;;11.00;8.33;;;;;10.65;74.81;98310.16;1994627;28;3487740;-82
2024/02/10 03:27:50;;;;;;;;;7.50;7.17;;;;;10.62;74.92;98311.22;2052089;28;2748213;-83
2024/02/10 03:29:01;;;;;;;;;10.67;10.00;;;;;10.60;75.20;98305.25;1999220;28;3505439;-82
2024/02/10 03:30:15;;;;;;;;;7.75;7.75;;;;;10.58;75.16;98305.38;2042855;28;2741933;-83
2024/02/10 03:31:25;;;;;;;;;9.33;7.67;;;;;10.57;75.15;98306.31;2025167;27;3447623;-82
2024/02/10 03:32:38;;;;;;;;;9.67;9.00;;;;;10.55;75.09;98305.56;2046280;27;2741951;-83
2024/02/10 03:33:48;;;;;;;;;11.00;8.67;;;;;10.53;74.89;98304.00;1993439;28;3484682;-83
2024/02/10 03:34:59;;;;;;;;;9.33;8.00;;;;;10.52;75.06;98300.53;2033882;28;2751908;-83
2024/02/10 03:36:10;;;;;;;;;7.33;7.33;;;;;10.49;75.21;98297.28;2051076;27;2734633;-82
2024/02/10 03:37:21;;;;;;;;;11.33;7.67;;;;;10.48;75.20;98299.06;2002410;28;2769025;-82
2024/02/10 03:38:34;;;;;;;;;8.33;8.17;;;;;10.46;75.20;98296.56;2044861;28;2729441;-83
2024/02/10 03:39:45;;;;;;;;;11.33;9.67;;;;;10.43;75.34;98296.75;1999525;28;3496145;-82
2024/02/10 03:40:56;;;;;;;;;8.67;7.33;;;;;10.41;75.19;98293.41;2037993;28;2739221;-82
2024/02/10 03:42:07;;;;;;;;;9.33;7.67;;;;;10.40;75.70;98296.97;2028231;28;3460684;-82
2024/02/10 03:43:22;;;;;;;;;10.00;8.00;;;;;10.40;75.44;98296.13;2029885;28;3472133;-82
2024/02/10 03:44:34;;;;;;;;;9.00;9.00;;;;;10.37;75.58;98288.50;2019664;28;2738302;-82
2024/02/10 03:45:48;;;;;;;;;10.33;8.33;;;;;10.37;75.34;98291.13;2044918;28;2737821;-82
2024/02/10 03:47:01;;;;;;;;;9.67;8.33;;;;;10.35;75.62;98294.69;1994770;28;2751361;-82
2024/02/10 03:48:11;;;;;;;;;8.00;8.00;;;;;10.35;75.44;98286.81;2025005;28;2744015;-82
2024/02/10 03:49:22;;;;;;;;;12.33;9.67;;;;;10.35;75.54;98293.84;2042387;28;3503368;-82
2024/02/10 03:50:35;;;;;;;;;10.50;8.00;;;;;10.35;75.72;98293.84;2049836;28;1833633;-82
2024/02/10 03:51:45;;;;;;;;;9.00;9.00;;;;;10.33;75.65;98293.13;2039271;27;1825243;-82
2024/02/10 03:52:57;;;;;;;;;7.67;7.67;;;;;10.32;75.63;98299.34;2021564;28;2735218;-82
2024/02/10 03:54:12;;;;;;;;;9.67;8.33;;;;;10.32;75.74;98299.34;2023674;28;2764895;-83
2024/02/10 03:55:25;;;;;;;;;8.33;8.33;;;;;10.31;75.94;98295.88;2019521;28;2744046;-82
2024/02/10 03:56:37;;;;;;;;;11.75;8.50;;;;;10.30;76.01;98296.78;2031108;28;1833647;-82
2024/02/10 03:57:53;;;;;;;;;12.50;11.00;;;;;10.31;75.77;98293.25;2034019;28;1830521;-82
2024/02/10 03:59:04;;;;;;;;;11.50;11.50;;;;;10.30;75.82;98291.53;2023141;28;2789858;-83
2024/02/10 04:00:24;;;;;;;;;9.67;9.67;;;;;10.29;76.14;98289.88;2032052;28;3492943;-82
2024/02/10 04:01:34;;;;;;;;;12.00;10.00;;;;;10.28;75.99;98282.09;2023869;28;3515851;-83
2024/02/10 04:02:46;;;;;;;;;9.00;9.00;;;;;10.27;75.97;98286.53;2039624;27;3459623;-82
2024/02/10 04:03:56;;;;;;;;;10.33;9.00;;;;;10.27;76.05;98293.56;2023803;28;3469003;-82
2024/02/10 04:05:08;;;;;;;;;8.33;8.33;;;;;10.27;75.87;98294.41;2039670;28;3451314;-83
2024/02/10 04:06:21;;;;;;;;;9.50;8.50;;;;;10.26;75.84;98292.72;2046237;28;1844020;-82
2024/02/10 04:07:35;;;;;;;;;9.50;7.33;;;;;10.27;76.03;98291.78;2051633;28;2733599;-82
2024/02/10 04:08:46;;;;;;;;;10.00;9.00;;;;;10.26;75.97;98289.25;2002815;27;2758670;-83
2024/02/10 04:09:58;;;;;;;;;11.75;9.50;;;;;10.24;76.02;98292.00;2052925;28;1841985;-83
2024/02/10 04:11:08;;;;;;;;;12.00;11.00;;;;;10.23;75.88;98290.31;2023243;28;2784689;-83
2024/02/10 04:12:20;;;;;;;;;10.00;8.00;;;;;10.22;76.15;98289.47;2041030;28;1809694;-82
2024/02/10 04:13:30;;;;;;;;;11.00;9.00;;;;;10.22;76.11;98294.72;2016825;28;3485124;-82
2024/02/10 04:14:41;;;;;;;;;10.33;9.33;;;;;10.21;75.91;98287.81;2040808;27;3478365;-83
2024/02/10 04:15:55;;;;;;;;;13.75;7.75;;;;;10.21;76.08;98292.22;2049533;28;1849306;-82
2024/02/10 04:17:06;;;;;;;;;14.00;12.00;;;;;10.20;75.82;98282.63;2015263;28;3524184;-83
2024/02/10 04:18:18;;;;;;;;;11.00;11.00;;;;;10.21;76.19;98289.59;2016362;28;3514841;-82
2024/02/10 04:19:30;;;;;;;;;13.33;10.33;;;;;10.19;76.00;98284.44;2023217;28;3510668;-82
2024/02/10 04:20:44;;;;;;;;;11.00;10.67;;;;;10.19;76.16;98287.06;2021821;28;3497118;-82
2024/02/10 04:21:54;;;;;;;;;12.00;11.00;;;;;10.18;76.21;98290.63;2020280;27;3512762;-83
2024/02/10 04:23:09;;;;;;;;;9.00;9.00;;;;;10.17;76.13;98283.72;2051288;27;2746122;-82
2024/02/10 04:24:20;;;;;;;;;10.00;10.00;;;;;10.16;76.12;98284.66;2000899;28;3498186;-82
2024/02/10 04:25:31;;;;;;;;;11.33;10.00;;;;;10.16;76.13;98284.66;2022046;27;3497130;-83
2024/02/10 04:26:43;;;;;;;;;11.50;9.75;;;;;10.15;76.04;98288.22;2038076;28;1842041;-82
2024/02/10 04:27:54;;;;;;;;;10.00;9.00;;;;;10.12;76.06;98284.03;2023100;28;3484619;-83
2024/02/10 04:29:06;;;;;;;;;10.33;8.67;;;;;10.14;75.96;98286.56;2031976;28;3478392;-83
2024/02/10 04:30:19;;;;;;;;;10.00;10.00;;;;;10.13;75.95;98300.63;2008315;28;3514150;-82
2024/02/10 04:31:30;;;;;;;;;13.25;9.00;;;;;10.10;75.66;98296.41;2023814;28;1837910;-83
2024/02/10 04:32:46;;;;;;;;;12.00;8.00;;;;;10.10;76.03;98296.41;2016584;28;3472140;-82
2024/02/10 04:33:56;;;;;;;;;9.67;8.00;;;;;10.11;76.25;98299.91;2024584;28;3475681;-82
2024/02/10 04:35:09;;;;;;;;;8.33;5.67;;;;;10.09;76.04;98302.63;2040913;27;2745085;-82
2024/02/10 04:36:20;;;;;;;;;10.00;9.33;;;;;10.08;76.01;98295.69;2016072;28;3481490;-82
2024/02/10 04:37:31;;;;;;;;;10.00;8.67;;;;;10.08;76.16;98292.22;2039450;28;1822709;-83
2024/02/10 04:38:42;;;;;;;;;10.00;10.00;;;;;10.09;76.14;98301.78;2007483;28;2778483;-83
2024/02/10 04:39:53;;;;;;;;;8.33;8.33;;;;;10.06;76.45;98294.97;2042336;28;2746131;-83
2024/02/10 04:41:04;;;;;;;;;12.00;12.00;;;;;10.08;76.35;98300.09;1999913;28;2791962;-82
2024/02/10 04:42:15;;;;;;;;;11.00;11.00;;;;;10.07;76.32;98296.66;1994690;28;3501249;-83
2024/02/10 04:43:25;;;;;;;;;10.50;10.50;;;;;10.07;76.26;98294.03;2000021;27;2773209;-83
2024/02/10 04:44:38;;;;;;;;;10.33;9.00;;;;;10.09;76.28;98302.63;2056704;27;1829415;-82
2024/02/10 04:45:49;;;;;;;;;15.25;10.75;;;;;10.09;76.45;98299.16;2016157;27;1829437;-82
2024/02/10 04:47:00;;;;;;;;;13.00;12.00;;;;;10.08;76.41;98298.31;2023369;28;2802347;-83
2024/02/10 04:48:12;;;;;;;;;12.00;12.00;;;;;10.09;76.51;98302.63;2018248;28;2784603;-83
2024/02/10 04:49:26;;;;;;;;;12.00;10.50;;;;;10.07;76.34;98301.91;2032222;27;2781530;-82
2024/02/10 04:50:37;;;;;;;;;12.75;10.50;;;;;10.09;76.58;98309.66;2038811;28;1846160;-83
2024/02/10 04:51:48;;;;;;;;;11.67;10.00;;;;;10.08;76.32;98302.72;2040368;28;3504428;-83
2024/02/10 04:53:00;;;;;;;;;9.50;9.50;;;;;10.08;76.25;98302.72;2055429;27;1842980;-83
2024/02/10 04:54:13;;;;;;;;;10.33;10.33;;;;;10.09;76.62;98304.41;2025367;27;3514142;-83
2024/02/10 04:55:24;;;;;;;;;10.33;9.33;;;;;10.07;76.31;98304.53;2026300;27;2767047;-83
2024/02/10 04:56:37;;;;;;;;;8.83;8.33;;;;;10.10;76.32;98316.59;2053931;27;2737777;-82
2024/02/10 04:57:48;;;;;;;;;11.67;11.67;;;;;10.09;76.72;98305.25;2001118;27;3512784;-83
2024/02/10 04:58:59;;;;;;;;;9.33;8.67;;;;;10.08;76.54;98308.81;2034399;27;3467980;-82
2024/02/10 05:00:18;;;;;;;;;13.67;13.00;;;;;10.08;76.19;98306.19;2038982;28;3515329;-83
2024/02/10 05:01:32;;;;;;;;;11.67;11.67;;;;;10.08;76.49;98305.34;2031887;27;3512194;-83
2024/02/10 05:02:47;;;;;;;;;12.33;9.67;;;;;10.08;76.71;98306.19;2047915;28;1823210;-83
2024/02/10 05:03:57;;;;;;;;;12.00;11.00;;;;;10.07;76.38;98298.44;1999123;28;2787764;-82
2024/02/10 05:05:10;;;;;;;;;10.00;10.00;;;;;10.07;76.65;98307.16;2039359;27;3509641;-82
2024/02/10 05:06:21;;;;;;;;;14.00;10.50;;;;;10.07;76.88;98301.91;2024206;28;2789839;-82
2024/02/10 05:07:32;;;;;;;;;11.50;10.50;;;;;10.06;76.43;98300.22;2016299;27;2786698;-83
2024/02/10 05:08:45;;;;;;;;;14.50;12.00;;;;;10.05;76.46;98301.16;2033162;28;2788809;-82
2024/02/10 05:10:00;;;;;;;;;11.00;10.50;;;;;10.04;76.51;98290.78;2032284;28;1827381;-83
2024/02/10 05:11:11;;;;;;;;;9.50;9.50;;;;;10.05;76.18;98293.28;2024809;28;2766975;-83
2024/02/10 05:12:22;;;;;;;;;11.50;11.00;;;;;10.04;76.42;98298.66;2039599;27;2789843;-83
2024/02/10 05:13:33;;;;;;;;;12.00;10.00;;;;;10.05;76.62;98292.47;2019677;28;3510667;-82
2024/02/10 05:14:44;;;;;;;;;13.00;13.00;;;;;10.04;76.57;98285.53;2033522;28;2789870;-83
2024/02/10 05:15:55;;;;;;;;;6.00;6.00;;;;;10.03;76.34;98287.31;2041533;28;3456474;-82
2024/02/10 05:17:06;;;;;;;;;14.50;13.00;;;;;10.02;76.36;98288.28;2040653;27;2796097;-82
2024/02/10 05:18:17;;;;;;;;;13.50;11.50;;;;;10.01;76.61;98287.44;2039098;28;2787799;-82
2024/02/10 05:19:28;;;;;;;;;12.00;11.00;;;;;9.99;76.34;98280.59;2010103;28;2785679;-82
2024/02/10 05:20:40;;;;;;;;;11.33;11.33;;;;;9.99;76.59;98284.06;2030798;27;3517946;-82
2024/02/10 05:21:56;;;;;;;;;17.50;14.00;;;;;9.98;76.50;98284.16;2053745;28;1825289;-83
2024/02/10 05:23:06;;;;;;;;;13.00;13.00;;;;;9.97;76.62;98285.13;2002027;27;2788804;-83
2024/02/10 05:24:17;;;;;;;;;14.50;11.50;;;;;9.96;76.67;98289.53;2017892;27;2790861;-83
2024/02/10 05:25:35;;;;;;;;;12.50;12.00;;;;;9.96;76.79;98288.69;2047460;27;2788821;-83
2024/02/10 05:26:46;;;;;;;;;17.25;15.25;;;;;9.96;76.52;98288.69;2038835;28;1844032;-83
2024/02/10 05:28:00;;;;;;;;;9.33;9.00;;;;;9.96;76.63;98296.56;2018477;28;3468994;-82
2024/02/10 05:29:10;;;;;;;;;9.00;9.00;;;;;9.94;77.05;98286.19;2025026;28;2732593;-82
2024/02/10 05:30:23;;;;;;;;;12.00;10.67;;;;;9.95;76.63;98292.28;2035891;27;3503886;-82
2024/02/10 05:31:37;;;;;;;;;14.50;14.00;;;;;9.94;76.51;98291.44;2016172;27;2789855;-82